Schulenburg, TX (78956)

3:33 AM CDT on July 29, 2016 (GMT -0500)
Falcon farm | | Change Station

Elev 305 ft 29.71 °N, 96.95 °W | Updated 32 seconds ago

Clear
Clear
77.2 °F
Feels Like 78 °F
N
0.0
Wind Variable Wind from SSE
Gusts 0.0 mph

Today
High -- | Low -- °F
--% Chance of Precip.
Yesterday
High -- | Low -- °F
Precip. -- in
Pressure 30.02 in
Visibility 10.0 miles
Clouds Clear
Heat Index 78 °F
Dew Point 75 °F
Humidity 94%
Rainfall 0.00 in
Snow Depth Not available.
6:45 AM 8:22 PM
Waning Crescent, 24% visible
METAR KGYB 290815Z AUTO 20004KT 10SM CLR 25/24 A3002 RMK AO2 T02450235
Pressure 30.02 in
Visibility 10.0 miles
Clouds Clear
Heat Index 78 °F
Dew Point 75 °F
Humidity 94%
Rainfall 0.00 in
Snow Depth Not available.
6:45 AM 8:22 PM
Waning Crescent, 24% visible
METAR KGYB 290815Z AUTO 20004KT 10SM CLR 25/24 A3002 RMK AO2 T02450235

10-Day Weather Forecast

Almanac

Astronomy

Jul. 29, 2016 Rise Set
Actual Time
Civil Twilight
Nautical Twilight
Astronomical Twilight
Moon
Length of Visible Light
Length of Day
Tomorrow will be .
, % of the Moon is Illuminated

Today's Extremes

State Highs State Lows

Community

WunderPhotos

Upload Photos

1,928,300 photos uploaded!

WunderBlog® & News

Nearby

Air Quality

  Air Quality AQ Index Pollutant
Not available.

Snow Depth

Station Depth Elevation

Earthquake Activity

City Distance Mag. Time & Date
Minimum magnitude displayed is 2.5.

Coastal Water Temperatures

Place Temperature

Stations

Nearby Weather Stations

Station Location Temp. Windchill Dew Point Humidity Wind Precip. Elev Updated Type
                   

Watches & Warnings

There are currently no watches in effect.